sensor_id;sensor_type;location;lat;lon;timestamp;temperature;humidity
11446;DHT22;5779;64.178;15.432;2023-09-19T00:00:23;9.90;99.90
11446;DHT22;5779;64.178;15.432;2023-09-19T00:03:16;9.90;99.90
11446;DHT22;5779;64.178;15.432;2023-09-19T00:06:04;10.00;99.90
11446;DHT22;5779;64.178;15.432;2023-09-19T00:08:52;10.00;99.90
11446;DHT22;5779;64.178;15.432;2023-09-19T00:11:40;10.00;99.90
11446;DHT22;5779;64.178;15.432;2023-09-19T00:14:27;10.20;99.90
11446;DHT22;5779;64.178;15.432;2023-09-19T00:17:13;10.20;99.90
11446;DHT22;5779;64.178;15.432;2023-09-19T00:20:03;10.10;99.90
11446;DHT22;5779;64.178;15.432;2023-09-19T00:22:58;10.20;99.90
11446;DHT22;5779;64.178;15.432;2023-09-19T00:25:50;10.10;99.90
11446;DHT22;5779;64.178;15.432;2023-09-19T00:28:37;10.10;99.90
11446;DHT22;5779;64.178;15.432;2023-09-19T00:31:24;10.10;99.90
11446;DHT22;5779;64.178;15.432;2023-09-19T00:34:11;10.10;99.90
11446;DHT22;5779;64.178;15.432;2023-09-19T00:36:59;10.20;99.90
11446;DHT22;5779;64.178;15.432;2023-09-19T00:39:46;10.20;99.90
11446;DHT22;5779;64.178;15.432;2023-09-19T00:42:33;10.20;99.90
11446;DHT22;5779;64.178;15.432;2023-09-19T00:45:23;10.20;99.90
11446;DHT22;5779;64.178;15.432;2023-09-19T00:48:10;10.40;99.90
11446;DHT22;5779;64.178;15.432;2023-09-19T00:51:01;10.30;99.90
11446;DHT22;5779;64.178;15.432;2023-09-19T00:53:51;10.30;99.90
11446;DHT22;5779;64.178;15.432;2023-09-19T00:56:39;10.20;99.90
11446;DHT22;5779;64.178;15.432;2023-09-19T00:59:27;10.30;99.90
11446;DHT22;5779;64.178;15.432;2023-09-19T01:02:15;10.20;99.90
11446;DHT22;5779;64.178;15.432;2023-09-19T01:05:02;10.20;99.90
11446;DHT22;5779;64.178;15.432;2023-09-19T01:07:51;10.20;99.90
11446;DHT22;5779;64.178;15.432;2023-09-19T01:10:46;10.20;99.90
11446;DHT22;5779;64.178;15.432;2023-09-19T01:13:47;10.20;99.90
11446;DHT22;5779;64.178;15.432;2023-09-19T01:16:39;10.20;99.90
11446;DHT22;5779;64.178;15.432;2023-09-19T01:22:53;10.30;99.90
11446;DHT22;5779;64.178;15.432;2023-09-19T01:28:59;10.30;99.90
11446;DHT22;5779;64.178;15.432;2023-09-19T01:31:49;10.30;99.90
11446;DHT22;5779;64.178;15.432;2023-09-19T01:34:46;10.30;99.90
11446;DHT22;5779;64.178;15.432;2023-09-19T01:37:37;10.40;99.90
11446;DHT22;5779;64.178;15.432;2023-09-19T01:40:24;10.30;99.90
11446;DHT22;5779;64.178;15.432;2023-09-19T01:43:15;10.30;99.90
11446;DHT22;5779;64.178;15.432;2023-09-19T01:46:07;10.30;99.90
11446;DHT22;5779;64.178;15.432;2023-09-19T01:49:06;10.40;99.90
11446;DHT22;5779;64.178;15.432;2023-09-19T01:52:04;10.40;99.90
11446;DHT22;5779;64.178;15.432;2023-09-19T01:54:56;10.40;99.90
11446;DHT22;5779;64.178;15.432;2023-09-19T01:57:51;10.30;99.90
11446;DHT22;5779;64.178;15.432;2023-09-19T02:00:41;10.30;99.90
11446;DHT22;5779;64.178;15.432;2023-09-19T02:03:30;10.40;99.90
11446;DHT22;5779;64.178;15.432;2023-09-19T02:06:20;10.40;99.90
11446;DHT22;5779;64.178;15.432;2023-09-19T02:09:07;10.40;99.90
11446;DHT22;5779;64.178;15.432;2023-09-19T02:11:54;10.40;99.90
11446;DHT22;5779;64.178;15.432;2023-09-19T02:14:41;10.50;99.90
11446;DHT22;5779;64.178;15.432;2023-09-19T02:17:28;10.60;99.90
11446;DHT22;5779;64.178;15.432;2023-09-19T02:20:16;10.60;99.90
11446;DHT22;5779;64.178;15.432;2023-09-19T02:23:07;10.70;99.90
11446;DHT22;5779;64.178;15.432;2023-09-19T02:25:55;10.70;99.90
11446;DHT22;5779;64.178;15.432;2023-09-19T02:28:43;10.80;99.90
11446;DHT22;5779;64.178;15.432;2023-09-19T02:31:31;10.80;99.90
11446;DHT22;5779;64.178;15.432;2023-09-19T02:34:17;10.80;99.90
11446;DHT22;5779;64.178;15.432;2023-09-19T02:37:05;10.80;99.90
11446;DHT22;5779;64.178;15.432;2023-09-19T02:39:55;10.90;99.90
11446;DHT22;5779;64.178;15.432;2023-09-19T02:42:43;10.90;99.90
11446;DHT22;5779;64.178;15.432;2023-09-19T02:45:32;11.00;99.90
11446;DHT22;5779;64.178;15.432;2023-09-19T02:48:19;11.10;99.90
11446;DHT22;5779;64.178;15.432;2023-09-19T02:51:05;10.90;99.90
11446;DHT22;5779;64.178;15.432;2023-09-19T02:53:52;11.10;99.90
11446;DHT22;5779;64.178;15.432;2023-09-19T02:56:41;11.00;99.90
11446;DHT22;5779;64.178;15.432;2023-09-19T02:59:28;11.00;99.90
11446;DHT22;5779;64.178;15.432;2023-09-19T03:02:16;11.00;99.90
11446;DHT22;5779;64.178;15.432;2023-09-19T03:05:04;11.00;99.90
11446;DHT22;5779;64.178;15.432;2023-09-19T03:07:51;11.00;99.90
11446;DHT22;5779;64.178;15.432;2023-09-19T03:10:39;11.00;99.90
11446;DHT22;5779;64.178;15.432;2023-09-19T03:13:27;10.90;99.90
11446;DHT22;5779;64.178;15.432;2023-09-19T03:16:16;10.80;99.90
11446;DHT22;5779;64.178;15.432;2023-09-19T03:19:04;10.80;99.90
11446;DHT22;5779;64.178;15.432;2023-09-19T03:21:50;10.90;99.90
11446;DHT22;5779;64.178;15.432;2023-09-19T03:24:38;10.80;99.90
11446;DHT22;5779;64.178;15.432;2023-09-19T03:27:25;10.80;99.90
11446;DHT22;5779;64.178;15.432;2023-09-19T03:30:14;10.90;99.90
11446;DHT22;5779;64.178;15.432;2023-09-19T03:33:02;10.80;99.90
11446;DHT22;5779;64.178;15.432;2023-09-19T03:35:52;10.80;99.90
11446;DHT22;5779;64.178;15.432;2023-09-19T03:38:39;10.80;99.90
11446;DHT22;5779;64.178;15.432;2023-09-19T03:41:26;10.90;99.90
11446;DHT22;5779;64.178;15.432;2023-09-19T03:44:13;11.00;99.90
11446;DHT22;5779;64.178;15.432;2023-09-19T03:47:01;11.10;99.90
11446;DHT22;5779;64.178;15.432;2023-09-19T03:49:49;11.00;99.90
11446;DHT22;5779;64.178;15.432;2023-09-19T03:52:37;11.00;99.90
11446;DHT22;5779;64.178;15.432;2023-09-19T03:55:24;11.00;99.90
11446;DHT22;5779;64.178;15.432;2023-09-19T03:58:11;11.00;99.90
11446;DHT22;5779;64.178;15.432;2023-09-19T04:00:58;11.00;99.90
11446;DHT22;5779;64.178;15.432;2023-09-19T04:03:47;11.10;99.90
11446;DHT22;5779;64.178;15.432;2023-09-19T04:06:34;11.10;99.90
11446;DHT22;5779;64.178;15.432;2023-09-19T04:09:21;11.10;99.90
11446;DHT22;5779;64.178;15.432;2023-09-19T04:12:08;11.10;99.90
11446;DHT22;5779;64.178;15.432;2023-09-19T04:14:55;11.00;99.90
11446;DHT22;5779;64.178;15.432;2023-09-19T04:17:41;10.90;99.90
11446;DHT22;5779;64.178;15.432;2023-09-19T04:20:30;11.10;99.90
11446;DHT22;5779;64.178;15.432;2023-09-19T04:23:17;11.20;99.90
11446;DHT22;5779;64.178;15.432;2023-09-19T04:26:05;11.00;99.90
11446;DHT22;5779;64.178;15.432;2023-09-19T04:28:52;11.10;99.90
11446;DHT22;5779;64.178;15.432;2023-09-19T04:31:38;11.00;99.90
11446;DHT22;5779;64.178;15.432;2023-09-19T04:34:25;11.00;99.90
11446;DHT22;5779;64.178;15.432;2023-09-19T04:37:14;11.00;99.90
11446;DHT22;5779;64.178;15.432;2023-09-19T04:40:00;11.00;99.90
11446;DHT22;5779;64.178;15.432;2023-09-19T04:42:53;11.10;99.90
11446;DHT22;5779;64.178;15.432;2023-09-19T04:45:42;11.10;99.90
11446;DHT22;5779;64.178;15.432;2023-09-19T04:48:29;11.20;99.90
11446;DHT22;5779;64.178;15.432;2023-09-19T04:51:16;11.30;99.90
11446;DHT22;5779;64.178;15.432;2023-09-19T04:54:06;11.30;99.90
11446;DHT22;5779;64.178;15.432;2023-09-19T04:56:53;11.30;99.90
11446;DHT22;5779;64.178;15.432;2023-09-19T04:59:40;11.40;99.90
11446;DHT22;5779;64.178;15.432;2023-09-19T05:02:29;11.40;99.90
11446;DHT22;5779;64.178;15.432;2023-09-19T05:05:16;11.30;99.90
11446;DHT22;5779;64.178;15.432;2023-09-19T05:08:04;11.40;99.90
11446;DHT22;5779;64.178;15.432;2023-09-19T05:10:53;11.40;99.90
11446;DHT22;5779;64.178;15.432;2023-09-19T05:13:40;11.50;99.90
11446;DHT22;5779;64.178;15.432;2023-09-19T05:16:29;11.50;99.90
11446;DHT22;5779;64.178;15.432;2023-09-19T05:19:16;11.60;99.90
11446;DHT22;5779;64.178;15.432;2023-09-19T05:22:03;11.50;99.90
11446;DHT22;5779;64.178;15.432;2023-09-19T05:24:52;11.50;99.90
11446;DHT22;5779;64.178;15.432;2023-09-19T05:27:40;11.50;99.90
11446;DHT22;5779;64.178;15.432;2023-09-19T05:30:28;11.60;99.90
11446;DHT22;5779;64.178;15.432;2023-09-19T05:33:14;11.60;99.90
11446;DHT22;5779;64.178;15.432;2023-09-19T05:36:04;11.70;99.90
11446;DHT22;5779;64.178;15.432;2023-09-19T05:38:50;11.50;99.90
11446;DHT22;5779;64.178;15.432;2023-09-19T05:41:38;11.40;99.90
11446;DHT22;5779;64.178;15.432;2023-09-19T05:44:26;11.40;99.90
11446;DHT22;5779;64.178;15.432;2023-09-19T05:47:13;11.40;99.90
11446;DHT22;5779;64.178;15.432;2023-09-19T05:50:00;11.40;99.90
11446;DHT22;5779;64.178;15.432;2023-09-19T05:52:52;11.50;99.90
11446;DHT22;5779;64.178;15.432;2023-09-19T05:55:39;11.40;99.90
11446;DHT22;5779;64.178;15.432;2023-09-19T05:58:26;11.40;99.90
11446;DHT22;5779;64.178;15.432;2023-09-19T06:01:14;11.40;99.90
11446;DHT22;5779;64.178;15.432;2023-09-19T06:04:04;11.50;99.90
11446;DHT22;5779;64.178;15.432;2023-09-19T06:06:55;11.50;99.90
11446;DHT22;5779;64.178;15.432;2023-09-19T06:09:42;11.50;99.90
11446;DHT22;5779;64.178;15.432;2023-09-19T06:12:29;11.50;99.90
11446;DHT22;5779;64.178;15.432;2023-09-19T06:15:18;11.50;99.90
11446;DHT22;5779;64.178;15.432;2023-09-19T06:18:11;11.60;99.90
11446;DHT22;5779;64.178;15.432;2023-09-19T06:21:02;11.60;99.90
11446;DHT22;5779;64.178;15.432;2023-09-19T06:23:53;11.60;99.90
11446;DHT22;5779;64.178;15.432;2023-09-19T06:26:40;11.60;99.90
11446;DHT22;5779;64.178;15.432;2023-09-19T06:29:27;11.50;99.90
11446;DHT22;5779;64.178;15.432;2023-09-19T06:32:14;11.40;99.90
11446;DHT22;5779;64.178;15.432;2023-09-19T06:35:03;11.50;99.90
11446;DHT22;5779;64.178;15.432;2023-09-19T06:37:53;11.60;99.90
11446;DHT22;5779;64.178;15.432;2023-09-19T06:40:39;11.60;99.90
11446;DHT22;5779;64.178;15.432;2023-09-19T06:43:27;11.60;99.90
11446;DHT22;5779;64.178;15.432;2023-09-19T06:46:15;11.60;99.90
11446;DHT22;5779;64.178;15.432;2023-09-19T06:49:02;11.60;99.90
11446;DHT22;5779;64.178;15.432;2023-09-19T06:51:54;11.60;99.90
11446;DHT22;5779;64.178;15.432;2023-09-19T06:54:42;11.80;99.90
11446;DHT22;5779;64.178;15.432;2023-09-19T06:57:29;11.80;99.90
11446;DHT22;5779;64.178;15.432;2023-09-19T07:00:16;11.90;99.90
11446;DHT22;5779;64.178;15.432;2023-09-19T07:03:05;12.10;99.90
11446;DHT22;5779;64.178;15.432;2023-09-19T07:05:55;12.10;99.90
11446;DHT22;5779;64.178;15.432;2023-09-19T07:08:45;12.10;99.90
11446;DHT22;5779;64.178;15.432;2023-09-19T07:11:37;12.10;99.90
11446;DHT22;5779;64.178;15.432;2023-09-19T07:14:28;12.20;99.90
11446;DHT22;5779;64.178;15.432;2023-09-19T07:17:21;12.20;99.90
11446;DHT22;5779;64.178;15.432;2023-09-19T07:20:12;12.20;99.90
11446;DHT22;5779;64.178;15.432;2023-09-19T07:23:04;12.30;99.90
11446;DHT22;5779;64.178;15.432;2023-09-19T07:25:58;12.40;99.90
11446;DHT22;5779;64.178;15.432;2023-09-19T07:28:49;12.30;99.90
11446;DHT22;5779;64.178;15.432;2023-09-19T07:31:36;12.40;99.90
11446;DHT22;5779;64.178;15.432;2023-09-19T07:34:26;12.40;99.90
11446;DHT22;5779;64.178;15.432;2023-09-19T07:37:17;12.40;99.90
11446;DHT22;5779;64.178;15.432;2023-09-19T07:40:11;12.40;99.90
11446;DHT22;5779;64.178;15.432;2023-09-19T07:43:05;12.50;99.90
11446;DHT22;5779;64.178;15.432;2023-09-19T07:46:02;12.50;99.90
11446;DHT22;5779;64.178;15.432;2023-09-19T07:48:55;12.40;99.90
11446;DHT22;5779;64.178;15.432;2023-09-19T07:51:42;12.50;99.90
11446;DHT22;5779;64.178;15.432;2023-09-19T07:54:31;12.50;99.90
11446;DHT22;5779;64.178;15.432;2023-09-19T07:57:22;12.70;99.90
11446;DHT22;5779;64.178;15.432;2023-09-19T08:00:15;12.60;99.90
11446;DHT22;5779;64.178;15.432;2023-09-19T08:03:04;12.60;99.90
11446;DHT22;5779;64.178;15.432;2023-09-19T08:05:57;12.50;99.90
11446;DHT22;5779;64.178;15.432;2023-09-19T08:08:51;12.50;99.90
11446;DHT22;5779;64.178;15.432;2023-09-19T08:11:44;12.50;99.90
11446;DHT22;5779;64.178;15.432;2023-09-19T08:14:34;12.60;99.90
11446;DHT22;5779;64.178;15.432;2023-09-19T08:17:24;12.60;99.90
11446;DHT22;5779;64.178;15.432;2023-09-19T08:20:14;12.60;99.90
11446;DHT22;5779;64.178;15.432;2023-09-19T08:23:03;12.60;99.90
11446;DHT22;5779;64.178;15.432;2023-09-19T08:25:55;12.60;99.90
11446;DHT22;5779;64.178;15.432;2023-09-19T08:28:42;12.70;99.90
11446;DHT22;5779;64.178;15.432;2023-09-19T08:31:35;12.80;99.90
11446;DHT22;5779;64.178;15.432;2023-09-19T08:34:25;12.70;99.90
11446;DHT22;5779;64.178;15.432;2023-09-19T08:37:12;12.70;99.90
11446;DHT22;5779;64.178;15.432;2023-09-19T08:40:04;12.80;99.90
11446;DHT22;5779;64.178;15.432;2023-09-19T08:42:59;12.80;99.90
11446;DHT22;5779;64.178;15.432;2023-09-19T08:45:48;12.80;99.90
11446;DHT22;5779;64.178;15.432;2023-09-19T08:48:42;12.90;99.90
11446;DHT22;5779;64.178;15.432;2023-09-19T08:51:42;12.90;99.90
11446;DHT22;5779;64.178;15.432;2023-09-19T08:54:37;12.90;99.90
11446;DHT22;5779;64.178;15.432;2023-09-19T08:57:33;13.00;99.90
11446;DHT22;5779;64.178;15.432;2023-09-19T09:00:24;13.00;99.90
11446;DHT22;5779;64.178;15.432;2023-09-19T09:03:16;13.00;99.90
11446;DHT22;5779;64.178;15.432;2023-09-19T09:06:12;12.90;99.90
11446;DHT22;5779;64.178;15.432;2023-09-19T09:09:08;12.80;99.90
11446;DHT22;5779;64.178;15.432;2023-09-19T09:12:03;12.70;99.90
11446;DHT22;5779;64.178;15.432;2023-09-19T09:14:54;12.80;99.90
11446;DHT22;5779;64.178;15.432;2023-09-19T09:17:47;12.80;99.90
11446;DHT22;5779;64.178;15.432;2023-09-19T09:20:35;12.90;99.90
11446;DHT22;5779;64.178;15.432;2023-09-19T09:23:23;12.80;99.90
11446;DHT22;5779;64.178;15.432;2023-09-19T09:26:42;12.90;99.90
11446;DHT22;5779;64.178;15.432;2023-09-19T09:29:45;12.90;99.90
11446;DHT22;5779;64.178;15.432;2023-09-19T09:32:37;12.90;99.90
11446;DHT22;5779;64.178;15.432;2023-09-19T09:35:25;12.90;99.90
11446;DHT22;5779;64.178;15.432;2023-09-19T09:38:15;12.80;99.90
11446;DHT22;5779;64.178;15.432;2023-09-19T09:41:06;12.90;99.90
11446;DHT22;5779;64.178;15.432;2023-09-19T09:43:55;13.00;99.90
11446;DHT22;5779;64.178;15.432;2023-09-19T09:46:44;13.00;99.90
11446;DHT22;5779;64.178;15.432;2023-09-19T09:50:05;13.10;99.90
11446;DHT22;5779;64.178;15.432;2023-09-19T09:52:53;13.00;99.90
11446;DHT22;5779;64.178;15.432;2023-09-19T09:55:59;13.00;99.90
11446;DHT22;5779;64.178;15.432;2023-09-19T09:58:50;13.10;99.90
11446;DHT22;5779;64.178;15.432;2023-09-19T10:01:48;13.00;99.90
11446;DHT22;5779;64.178;15.432;2023-09-19T10:04:35;13.00;99.90
11446;DHT22;5779;64.178;15.432;2023-09-19T10:07:31;12.90;99.90
11446;DHT22;5779;64.178;15.432;2023-09-19T10:10:30;12.90;99.90
11446;DHT22;5779;64.178;15.432;2023-09-19T10:13:31;12.90;99.90
11446;DHT22;5779;64.178;15.432;2023-09-19T10:16:22;13.00;99.90
11446;DHT22;5779;64.178;15.432;2023-09-19T10:19:16;13.00;99.90
11446;DHT22;5779;64.178;15.432;2023-09-19T10:22:05;13.10;99.90
11446;DHT22;5779;64.178;15.432;2023-09-19T10:24:53;13.00;99.90
11446;DHT22;5779;64.178;15.432;2023-09-19T10:27:41;12.90;99.90
11446;DHT22;5779;64.178;15.432;2023-09-19T10:30:31;13.10;99.90
11446;DHT22;5779;64.178;15.432;2023-09-19T10:33:22;13.00;99.90
11446;DHT22;5779;64.178;15.432;2023-09-19T10:36:13;13.20;99.90
11446;DHT22;5779;64.178;15.432;2023-09-19T10:39:02;13.20;99.90
11446;DHT22;5779;64.178;15.432;2023-09-19T10:41:53;13.20;99.90
11446;DHT22;5779;64.178;15.432;2023-09-19T10:44:45;13.20;99.90
11446;DHT22;5779;64.178;15.432;2023-09-19T10:47:34;13.20;99.90
11446;DHT22;5779;64.178;15.432;2023-09-19T10:50:24;13.10;99.90
11446;DHT22;5779;64.178;15.432;2023-09-19T10:53:13;13.20;99.90
11446;DHT22;5779;64.178;15.432;2023-09-19T10:56:02;13.20;99.90
11446;DHT22;5779;64.178;15.432;2023-09-19T10:59:06;13.30;99.90
11446;DHT22;5779;64.178;15.432;2023-09-19T11:01:55;13.30;99.90
11446;DHT22;5779;64.178;15.432;2023-09-19T11:04:43;13.20;99.90
11446;DHT22;5779;64.178;15.432;2023-09-19T11:07:59;13.30;99.90
11446;DHT22;5779;64.178;15.432;2023-09-19T11:10:52;13.30;99.90
11446;DHT22;5779;64.178;15.432;2023-09-19T11:13:40;13.30;99.90
11446;DHT22;5779;64.178;15.432;2023-09-19T11:16:30;13.40;99.90
11446;DHT22;5779;64.178;15.432;2023-09-19T11:19:18;13.40;99.90
11446;DHT22;5779;64.178;15.432;2023-09-19T11:22:05;13.30;99.90
11446;DHT22;5779;64.178;15.432;2023-09-19T11:24:55;13.40;99.90
11446;DHT22;5779;64.178;15.432;2023-09-19T11:31:50;13.40;99.90
11446;DHT22;5779;64.178;15.432;2023-09-19T11:34:46;13.30;99.90
11446;DHT22;5779;64.178;15.432;2023-09-19T11:38:05;13.30;99.90
11446;DHT22;5779;64.178;15.432;2023-09-19T11:44:36;13.40;99.90
11446;DHT22;5779;64.178;15.432;2023-09-19T11:47:27;13.40;99.90
11446;DHT22;5779;64.178;15.432;2023-09-19T11:50:18;13.40;99.90
11446;DHT22;5779;64.178;15.432;2023-09-19T11:53:06;13.50;99.90
11446;DHT22;5779;64.178;15.432;2023-09-19T11:55:56;13.40;99.90
11446;DHT22;5779;64.178;15.432;2023-09-19T11:58:44;13.50;99.90
11446;DHT22;5779;64.178;15.432;2023-09-19T12:01:32;13.50;99.90
11446;DHT22;5779;64.178;15.432;2023-09-19T12:04:33;13.60;99.90
11446;DHT22;5779;64.178;15.432;2023-09-19T12:07:23;13.60;99.90
11446;DHT22;5779;64.178;15.432;2023-09-19T12:10:12;13.60;99.90
11446;DHT22;5779;64.178;15.432;2023-09-19T12:13:02;13.60;99.90
11446;DHT22;5779;64.178;15.432;2023-09-19T12:15:51;13.60;99.90
11446;DHT22;5779;64.178;15.432;2023-09-19T12:18:38;13.60;99.90
11446;DHT22;5779;64.178;15.432;2023-09-19T12:21:29;13.60;99.90
11446;DHT22;5779;64.178;15.432;2023-09-19T12:24:17;13.50;99.90
11446;DHT22;5779;64.178;15.432;2023-09-19T12:27:07;13.50;99.90
11446;DHT22;5779;64.178;15.432;2023-09-19T12:29:54;13.50;99.90
11446;DHT22;5779;64.178;15.432;2023-09-19T12:32:42;13.50;99.90
11446;DHT22;5779;64.178;15.432;2023-09-19T12:35:29;13.50;99.90
11446;DHT22;5779;64.178;15.432;2023-09-19T12:38:25;13.50;99.90
11446;DHT22;5779;64.178;15.432;2023-09-19T12:41:13;13.40;99.90
11446;DHT22;5779;64.178;15.432;2023-09-19T12:44:00;13.40;99.90
11446;DHT22;5779;64.178;15.432;2023-09-19T12:46:50;13.40;99.90
11446;DHT22;5779;64.178;15.432;2023-09-19T12:50:07;13.30;99.90
11446;DHT22;5779;64.178;15.432;2023-09-19T12:52:58;13.30;99.90
11446;DHT22;5779;64.178;15.432;2023-09-19T12:55:58;13.40;99.90
11446;DHT22;5779;64.178;15.432;2023-09-19T12:58:49;13.40;99.90
11446;DHT22;5779;64.178;15.432;2023-09-19T13:01:38;13.30;99.90
11446;DHT22;5779;64.178;15.432;2023-09-19T13:04:28;13.30;99.90
11446;DHT22;5779;64.178;15.432;2023-09-19T13:07:41;13.30;99.90
11446;DHT22;5779;64.178;15.432;2023-09-19T13:10:32;13.20;99.90
11446;DHT22;5779;64.178;15.432;2023-09-19T13:13:25;13.20;99.90
11446;DHT22;5779;64.178;15.432;2023-09-19T13:16:14;13.20;99.90
11446;DHT22;5779;64.178;15.432;2023-09-19T13:19:04;13.20;99.90
11446;DHT22;5779;64.178;15.432;2023-09-19T13:21:51;13.20;99.90
11446;DHT22;5779;64.178;15.432;2023-09-19T13:24:41;13.30;99.90
11446;DHT22;5779;64.178;15.432;2023-09-19T13:27:27;13.40;99.90
11446;DHT22;5779;64.178;15.432;2023-09-19T13:30:16;13.40;99.90
11446;DHT22;5779;64.178;15.432;2023-09-19T13:33:06;13.30;99.90
11446;DHT22;5779;64.178;15.432;2023-09-19T13:35:53;13.40;99.90
11446;DHT22;5779;64.178;15.432;2023-09-19T13:38:42;13.40;99.90
11446;DHT22;5779;64.178;15.432;2023-09-19T13:41:29;13.40;99.90
11446;DHT22;5779;64.178;15.432;2023-09-19T13:44:17;13.40;99.90
11446;DHT22;5779;64.178;15.432;2023-09-19T13:47:06;13.30;99.90
11446;DHT22;5779;64.178;15.432;2023-09-19T13:49:55;13.40;99.90
11446;DHT22;5779;64.178;15.432;2023-09-19T13:52:42;13.50;99.90
11446;DHT22;5779;64.178;15.432;2023-09-19T13:55:29;13.50;99.90
11446;DHT22;5779;64.178;15.432;2023-09-19T13:58:16;13.50;99.90
11446;DHT22;5779;64.178;15.432;2023-09-19T14:01:02;13.60;99.90
11446;DHT22;5779;64.178;15.432;2023-09-19T14:03:51;13.60;99.90
11446;DHT22;5779;64.178;15.432;2023-09-19T14:06:42;13.60;99.90
11446;DHT22;5779;64.178;15.432;2023-09-19T14:09:30;13.70;99.90
11446;DHT22;5779;64.178;15.432;2023-09-19T14:12:18;13.60;99.90
11446;DHT22;5779;64.178;15.432;2023-09-19T14:15:05;13.60;99.90
11446;DHT22;5779;64.178;15.432;2023-09-19T14:17:52;13.60;99.90
11446;DHT22;5779;64.178;15.432;2023-09-19T14:20:42;13.60;99.90
11446;DHT22;5779;64.178;15.432;2023-09-19T14:23:29;13.50;99.90
11446;DHT22;5779;64.178;15.432;2023-09-19T14:26:21;13.60;99.90
11446;DHT22;5779;64.178;15.432;2023-09-19T14:29:08;13.60;99.90
11446;DHT22;5779;64.178;15.432;2023-09-19T14:31:55;13.50;99.90
11446;DHT22;5779;64.178;15.432;2023-09-19T14:34:43;13.50;99.90
11446;DHT22;5779;64.178;15.432;2023-09-19T14:37:32;13.50;99.90
11446;DHT22;5779;64.178;15.432;2023-09-19T14:40:19;13.60;99.90
11446;DHT22;5779;64.178;15.432;2023-09-19T14:43:07;13.50;99.90
11446;DHT22;5779;64.178;15.432;2023-09-19T14:45:54;13.50;99.90
11446;DHT22;5779;64.178;15.432;2023-09-19T14:48:42;13.50;99.90
11446;DHT22;5779;64.178;15.432;2023-09-19T14:51:29;13.60;99.90
11446;DHT22;5779;64.178;15.432;2023-09-19T14:54:18;13.60;99.90
11446;DHT22;5779;64.178;15.432;2023-09-19T14:57:05;13.60;99.90
11446;DHT22;5779;64.178;15.432;2023-09-19T14:59:53;13.70;99.90
11446;DHT22;5779;64.178;15.432;2023-09-19T15:02:41;13.70;99.90
11446;DHT22;5779;64.178;15.432;2023-09-19T15:05:29;13.60;99.90
11446;DHT22;5779;64.178;15.432;2023-09-19T15:08:16;13.60;99.90
11446;DHT22;5779;64.178;15.432;2023-09-19T15:11:04;13.70;99.90
11446;DHT22;5779;64.178;15.432;2023-09-19T15:13:52;13.70;99.90
11446;DHT22;5779;64.178;15.432;2023-09-19T15:16:39;13.70;99.90
11446;DHT22;5779;64.178;15.432;2023-09-19T15:19:29;13.70;99.90
11446;DHT22;5779;64.178;15.432;2023-09-19T15:22:15;13.70;99.90
11446;DHT22;5779;64.178;15.432;2023-09-19T15:25:02;13.80;99.90
11446;DHT22;5779;64.178;15.432;2023-09-19T15:27:52;13.70;99.90
11446;DHT22;5779;64.178;15.432;2023-09-19T15:30:39;13.70;99.90
11446;DHT22;5779;64.178;15.432;2023-09-19T15:33:26;13.70;99.90
11446;DHT22;5779;64.178;15.432;2023-09-19T15:36:14;13.70;99.90
11446;DHT22;5779;64.178;15.432;2023-09-19T15:39:05;13.70;99.90
11446;DHT22;5779;64.178;15.432;2023-09-19T15:41:53;13.80;99.90
11446;DHT22;5779;64.178;15.432;2023-09-19T15:44:41;13.70;99.90
11446;DHT22;5779;64.178;15.432;2023-09-19T15:47:29;13.70;99.90
11446;DHT22;5779;64.178;15.432;2023-09-19T15:50:16;13.70;99.90
11446;DHT22;5779;64.178;15.432;2023-09-19T15:53:03;13.80;99.90
11446;DHT22;5779;64.178;15.432;2023-09-19T15:55:50;13.80;99.90
11446;DHT22;5779;64.178;15.432;2023-09-19T15:58:37;13.80;99.90
11446;DHT22;5779;64.178;15.432;2023-09-19T16:01:27;13.70;99.90
11446;DHT22;5779;64.178;15.432;2023-09-19T16:04:16;13.70;99.90
11446;DHT22;5779;64.178;15.432;2023-09-19T16:07:03;13.70;99.90
11446;DHT22;5779;64.178;15.432;2023-09-19T16:09:50;13.80;99.90
11446;DHT22;5779;64.178;15.432;2023-09-19T16:12:37;13.80;99.90
11446;DHT22;5779;64.178;15.432;2023-09-19T16:15:24;13.80;99.90
11446;DHT22;5779;64.178;15.432;2023-09-19T16:18:12;13.80;99.90
11446;DHT22;5779;64.178;15.432;2023-09-19T16:21:02;13.70;99.90
11446;DHT22;5779;64.178;15.432;2023-09-19T16:23:50;13.70;99.90
11446;DHT22;5779;64.178;15.432;2023-09-19T16:26:38;13.80;99.90
11446;DHT22;5779;64.178;15.432;2023-09-19T16:29:25;13.80;99.90
11446;DHT22;5779;64.178;15.432;2023-09-19T16:32:12;13.90;99.90
11446;DHT22;5779;64.178;15.432;2023-09-19T16:35:01;13.90;99.90
11446;DHT22;5779;64.178;15.432;2023-09-19T16:37:48;13.90;99.90
11446;DHT22;5779;64.178;15.432;2023-09-19T16:40:34;14.00;99.90
11446;DHT22;5779;64.178;15.432;2023-09-19T16:43:22;14.00;99.90
11446;DHT22;5779;64.178;15.432;2023-09-19T16:46:10;14.10;99.90
11446;DHT22;5779;64.178;15.432;2023-09-19T16:48:57;14.00;99.90
11446;DHT22;5779;64.178;15.432;2023-09-19T16:51:46;14.00;99.90
11446;DHT22;5779;64.178;15.432;2023-09-19T16:54:33;14.00;99.90
11446;DHT22;5779;64.178;15.432;2023-09-19T16:57:20;14.00;99.90
11446;DHT22;5779;64.178;15.432;2023-09-19T17:00:09;14.00;99.90
11446;DHT22;5779;64.178;15.432;2023-09-19T17:02:58;14.10;99.90
11446;DHT22;5779;64.178;15.432;2023-09-19T17:05:45;14.10;99.90
11446;DHT22;5779;64.178;15.432;2023-09-19T17:08:34;14.20;99.90
11446;DHT22;5779;64.178;15.432;2023-09-19T17:11:21;14.10;99.90
11446;DHT22;5779;64.178;15.432;2023-09-19T17:14:09;14.10;99.90
11446;DHT22;5779;64.178;15.432;2023-09-19T17:16:55;14.10;99.90
11446;DHT22;5779;64.178;15.432;2023-09-19T17:19:43;13.90;99.90
11446;DHT22;5779;64.178;15.432;2023-09-19T17:22:30;13.90;99.90
11446;DHT22;5779;64.178;15.432;2023-09-19T17:25:18;13.70;99.90
11446;DHT22;5779;64.178;15.432;2023-09-19T17:28:05;13.60;99.90
11446;DHT22;5779;64.178;15.432;2023-09-19T17:30:52;13.40;99.90
11446;DHT22;5779;64.178;15.432;2023-09-19T17:33:40;13.30;99.90
11446;DHT22;5779;64.178;15.432;2023-09-19T17:36:28;13.40;99.90
11446;DHT22;5779;64.178;15.432;2023-09-19T17:39:17;13.10;99.90
11446;DHT22;5779;64.178;15.432;2023-09-19T17:42:05;13.00;99.90
11446;DHT22;5779;64.178;15.432;2023-09-19T17:44:53;13.10;99.90
11446;DHT22;5779;64.178;15.432;2023-09-19T17:47:40;13.00;99.90
11446;DHT22;5779;64.178;15.432;2023-09-19T17:50:28;13.10;99.90
11446;DHT22;5779;64.178;15.432;2023-09-19T17:53:15;13.10;99.90
11446;DHT22;5779;64.178;15.432;2023-09-19T17:56:02;13.20;99.90
11446;DHT22;5779;64.178;15.432;2023-09-19T17:58:50;13.20;99.90
11446;DHT22;5779;64.178;15.432;2023-09-19T18:01:40;13.30;99.90
11446;DHT22;5779;64.178;15.432;2023-09-19T18:04:31;13.30;99.90